AirNav   Pilot Hours Calculator
 
 880 users online  

SC51 Too Goo Doo Farms Airport
Meggett, South Carolina, USA

GOING TO MEGGETT?


FAA INFORMATION EFFECTIVE 22 APRIL 2021

Location

FAA Identifier: SC51
Lat/Long: 32-42-16.6430N 080-15-11.3550W
32-42.277383N 080-15.189250W
32.7046231,-80.2531542
(estimated)
Elevation: 15 ft. / 5 m (estimated)
Variation: 05W (1985)
From city: 1 mile W of MEGGETT, SC
Time zone: UTC -4 (UTC -5 during Standard Time)
Zip code: 29449

Airport Operations

Airport use: Private use. Permission required prior to landing
Activation date: 11/1980
Control tower: no
ARTCC: JACKSONVILLE CENTER
FSS: ANDERSON FLIGHT SERVICE STATION
Attendance: UNATNDD
Wind indicator: yes
Segmented circle: no

Airport Communications

WX AWOS-3 at JZI (13 nm E): 123.775 (843-559-3123)
WX ASOS at CHS (16 nm NE): 124.75 (843-554-9862)

Nearby radio navigation aids

VOR radial/distance  VOR name  Freq  Var
CHSr229/15.7CHARLESTON VORTAC113.5005W

 
NDB name  Hdg/Dist  Freq  Var  ID
DORCHESTER COUNTY184/21.436507WDYB -.. -.-- -...

Airport Services

Runway Information

Runway 15/33

Dimensions: 2600 x 80 ft. / 792 x 24 m
Surface: turf
RUNWAY 15  RUNWAY 33
Traffic pattern: leftleft
Obstructions: 50 ft. pline, marked, 50 ft. from runway
MARKED EQUIPMENT SHED 50' FROM THR.
50 ft. pline, marked, 50 ft. from runway
MARKED P-LINES W/TWO RED BALLS 50' FROM THR.

Airport Ownership and Management from official FAA records

Ownership: Privately-owned
Owner: SUSAN STANLEY
4692 TOO GOO DOO FARM RD
MEGGETT, SC 29449
Phone 803-889-6468
Manager: TOO GOO DOO PLANTATION
4682 TOO GOO DOO FARM RD
MEGGETT, SC 29449
Phone 483-889-9888

Airport Operational Statistics

Aircraft based on the field: 5
Single engine airplanes: 3
Ultralights: 2
    

Additional Remarks

FOR CD CTC CHARLESTON APCH AT 843-414-2832.

Instrument Procedures

There are no published instrument procedures at SC51.

Some nearby airports with instrument procedures:

KJZI - Charleston Executive Airport (13 nm E)
KCHS - Charleston Air Force Base/International Airport (16 nm NE)
KDYB - Summerville Airport (22 nm N)
KRBW - Lowcountry Regional Airport (23 nm NW)
KARW - Beaufort Executive Airport (26 nm SW)
 
Loc | Ops | Rwys | IFR | FBO | Links
Com | Nav | Svcs | Stats | Notes
Area around SC51 (Too Goo Doo Farms Airport)
 
Road maps at: MapQuest Bing Google
 
Aerial photo
No photo
 
Sectional chart

 
Airport distance calculator
Flying to Too Goo Doo Farms Airport? Find the distance to fly.

From to SC51

Sunrise and sunset
Times for 12-May-2021
 Local
(UTC-4)
 Zulu
(UTC)
Morning civil twilight05:5809:58
Sunrise06:2510:25
Sunset20:0900:09
Evening civil twilight20:3600:36

Current date and time
Zulu (UTC)  13-May-2021 03:31:13
Local (UTC-4)  12-May-2021 23:31:13
 
METAR
KJZI 
13nm E 
130315Z AUTO 01010G20KT 10SM OVC012 11/09 A3022 RMK AO2
KCHS 
16nm NE 
130256Z 02008KT 8SM -DZ BKN009 OVC014 09/08 A3024 RMK AO2 RAE15B33E49DZB49 SLP239 P0000 60000 T00940083 51025
KDYB 
22nm N 
130315Z AUTO 02007KT 2 1/2SM -RA BR OVC006 10/10 A3025 RMK AO2
KRBW 
23nm NW 
130315Z AUTO 02005KT 7SM OVC007 09/08 A3026 RMK AO2
TAF
KCHS 
16nm NE 
122122Z 1221/1318 03011G19KT P6SM -RA OVC008 FM130200 04011KT P6SM OVC007 FM130600 02010KT P6SM SCT007 BKN015 FM131300 03013KT P6SM SCT020 BKN040
NOTAMs
Click for the latest NOTAMs
NOTAMs are issued by the DoD/FAA and will open in a separate window not controlled by AirNav.

 

 
 

Would you like to see your business listed on this page?

 If your business provides an interesting product or service to pilots, flight crews, aircraft, or users of the Too Goo Doo Farms Airport, you should consider listing it here.  To start the listing process, click on the button below
 
Add a business
 

Other Pages about Too Goo Doo Farms Airport

Update a link
 
Copyright © AirNav, LLC. All rights reserved. Privacy Policy  Contact